sensor_id;sensor_type;location;lat;lon;timestamp;temperature;humidity
35206;DHT22;46555;45.620;13.796;2022-08-30T00:02:13;23.60;99.90
35206;DHT22;46555;45.620;13.796;2022-08-30T00:04:38;23.60;99.90
35206;DHT22;46555;45.620;13.796;2022-08-30T00:07:04;23.50;99.90
35206;DHT22;46555;45.620;13.796;2022-08-30T00:09:31;23.50;99.90
35206;DHT22;46555;45.620;13.796;2022-08-30T00:11:57;23.50;99.90
35206;DHT22;46555;45.620;13.796;2022-08-30T00:14:23;23.40;99.90
35206;DHT22;46555;45.620;13.796;2022-08-30T00:16:50;23.40;99.90
35206;DHT22;46555;45.620;13.796;2022-08-30T00:19:16;23.40;99.90
35206;DHT22;46555;45.620;13.796;2022-08-30T00:21:41;23.40;99.90
35206;DHT22;46555;45.620;13.796;2022-08-30T00:24:07;23.30;99.90
35206;DHT22;46555;45.620;13.796;2022-08-30T00:26:33;23.30;99.90
35206;DHT22;46555;45.620;13.796;2022-08-30T00:28:59;23.20;99.90
35206;DHT22;46555;45.620;13.796;2022-08-30T00:31:24;23.20;99.90
35206;DHT22;46555;45.620;13.796;2022-08-30T00:33:50;23.20;99.90
35206;DHT22;46555;45.620;13.796;2022-08-30T00:36:16;23.10;99.90
35206;DHT22;46555;45.620;13.796;2022-08-30T00:38:42;23.10;99.90
35206;DHT22;46555;45.620;13.796;2022-08-30T00:41:07;23.00;99.90
35206;DHT22;46555;45.620;13.796;2022-08-30T00:43:34;23.00;99.90
35206;DHT22;46555;45.620;13.796;2022-08-30T00:46:00;23.00;99.90
35206;DHT22;46555;45.620;13.796;2022-08-30T00:48:30;23.00;99.90
35206;DHT22;46555;45.620;13.796;2022-08-30T00:51:03;23.00;99.90
35206;DHT22;46555;45.620;13.796;2022-08-30T00:53:35;23.00;99.90
35206;DHT22;46555;45.620;13.796;2022-08-30T00:56:03;23.10;99.90
35206;DHT22;46555;45.620;13.796;2022-08-30T00:58:42;23.00;99.90
35206;DHT22;46555;45.620;13.796;2022-08-30T01:01:09;23.10;99.90
35206;DHT22;46555;45.620;13.796;2022-08-30T01:03:36;23.10;99.90
35206;DHT22;46555;45.620;13.796;2022-08-30T01:06:03;23.10;99.90
35206;DHT22;46555;45.620;13.796;2022-08-30T01:08:29;23.10;99.90
35206;DHT22;46555;45.620;13.796;2022-08-30T01:10:55;23.10;99.90
35206;DHT22;46555;45.620;13.796;2022-08-30T01:13:22;23.10;99.90
35206;DHT22;46555;45.620;13.796;2022-08-30T01:15:50;23.10;99.90
35206;DHT22;46555;45.620;13.796;2022-08-30T01:18:16;23.10;99.90
35206;DHT22;46555;45.620;13.796;2022-08-30T01:23:30;23.10;99.90
35206;DHT22;46555;45.620;13.796;2022-08-30T01:25:57;23.00;99.90
35206;DHT22;46555;45.620;13.796;2022-08-30T01:28:26;23.00;99.90
35206;DHT22;46555;45.620;13.796;2022-08-30T01:30:52;23.00;99.90
35206;DHT22;46555;45.620;13.796;2022-08-30T01:33:18;23.00;99.90
35206;DHT22;46555;45.620;13.796;2022-08-30T01:35:48;23.00;99.90
35206;DHT22;46555;45.620;13.796;2022-08-30T01:38:15;23.00;99.90
35206;DHT22;46555;45.620;13.796;2022-08-30T01:40:42;23.00;99.90
35206;DHT22;46555;45.620;13.796;2022-08-30T01:43:10;23.00;99.90
35206;DHT22;46555;45.620;13.796;2022-08-30T01:45:36;23.00;99.90
35206;DHT22;46555;45.620;13.796;2022-08-30T01:48:02;23.00;99.90
35206;DHT22;46555;45.620;13.796;2022-08-30T01:50:28;23.00;99.90
35206;DHT22;46555;45.620;13.796;2022-08-30T01:52:54;23.10;99.90
35206;DHT22;46555;45.620;13.796;2022-08-30T01:55:19;23.00;99.90
35206;DHT22;46555;45.620;13.796;2022-08-30T01:57:45;23.10;99.90
35206;DHT22;46555;45.620;13.796;2022-08-30T02:00:12;23.10;99.90
35206;DHT22;46555;45.620;13.796;2022-08-30T02:02:38;23.10;99.90
35206;DHT22;46555;45.620;13.796;2022-08-30T02:05:04;23.10;99.90
35206;DHT22;46555;45.620;13.796;2022-08-30T02:07:30;23.20;99.90
35206;DHT22;46555;45.620;13.796;2022-08-30T02:09:56;23.20;99.90
35206;DHT22;46555;45.620;13.796;2022-08-30T02:12:22;23.20;99.90
35206;DHT22;46555;45.620;13.796;2022-08-30T02:14:48;23.20;99.90
35206;DHT22;46555;45.620;13.796;2022-08-30T02:17:14;23.20;99.90
35206;DHT22;46555;45.620;13.796;2022-08-30T02:19:41;23.20;99.90
35206;DHT22;46555;45.620;13.796;2022-08-30T02:22:07;23.20;99.90
35206;DHT22;46555;45.620;13.796;2022-08-30T02:24:33;23.10;99.90
35206;DHT22;46555;45.620;13.796;2022-08-30T02:27:00;23.10;99.90
35206;DHT22;46555;45.620;13.796;2022-08-30T02:29:26;23.10;99.90
35206;DHT22;46555;45.620;13.796;2022-08-30T02:31:52;23.10;99.90
35206;DHT22;46555;45.620;13.796;2022-08-30T02:34:18;23.10;99.90
35206;DHT22;46555;45.620;13.796;2022-08-30T02:36:44;23.00;99.90
35206;DHT22;46555;45.620;13.796;2022-08-30T02:39:12;23.00;99.90
35206;DHT22;46555;45.620;13.796;2022-08-30T02:41:38;23.00;99.90
35206;DHT22;46555;45.620;13.796;2022-08-30T02:44:06;22.90;99.90
35206;DHT22;46555;45.620;13.796;2022-08-30T02:46:32;23.00;99.90
35206;DHT22;46555;45.620;13.796;2022-08-30T02:48:58;22.90;99.90
35206;DHT22;46555;45.620;13.796;2022-08-30T02:51:24;22.90;99.90
35206;DHT22;46555;45.620;13.796;2022-08-30T02:53:50;22.80;99.90
35206;DHT22;46555;45.620;13.796;2022-08-30T02:56:16;22.80;99.90
35206;DHT22;46555;45.620;13.796;2022-08-30T02:58:43;22.80;99.90
35206;DHT22;46555;45.620;13.796;2022-08-30T03:01:11;22.80;99.90
35206;DHT22;46555;45.620;13.796;2022-08-30T03:03:38;22.70;99.90
35206;DHT22;46555;45.620;13.796;2022-08-30T03:06:04;22.70;99.90
35206;DHT22;46555;45.620;13.796;2022-08-30T03:08:31;22.70;99.90
35206;DHT22;46555;45.620;13.796;2022-08-30T03:10:58;22.60;99.90
35206;DHT22;46555;45.620;13.796;2022-08-30T03:13:24;22.60;99.90
35206;DHT22;46555;45.620;13.796;2022-08-30T03:15:50;22.60;99.90
35206;DHT22;46555;45.620;13.796;2022-08-30T03:18:17;22.60;99.90
35206;DHT22;46555;45.620;13.796;2022-08-30T03:20:44;22.60;99.90
35206;DHT22;46555;45.620;13.796;2022-08-30T03:23:10;22.60;99.90
35206;DHT22;46555;45.620;13.796;2022-08-30T03:25:36;22.60;99.90
35206;DHT22;46555;45.620;13.796;2022-08-30T03:28:04;22.60;99.90
35206;DHT22;46555;45.620;13.796;2022-08-30T03:30:30;22.50;99.90
35206;DHT22;46555;45.620;13.796;2022-08-30T03:32:55;22.50;99.90
35206;DHT22;46555;45.620;13.796;2022-08-30T03:35:21;22.50;99.90
35206;DHT22;46555;45.620;13.796;2022-08-30T03:37:47;22.50;99.90
35206;DHT22;46555;45.620;13.796;2022-08-30T03:40:16;22.40;99.90
35206;DHT22;46555;45.620;13.796;2022-08-30T03:42:42;22.40;99.90
35206;DHT22;46555;45.620;13.796;2022-08-30T03:45:09;22.40;99.90
35206;DHT22;46555;45.620;13.796;2022-08-30T03:47:35;22.40;99.90
35206;DHT22;46555;45.620;13.796;2022-08-30T03:50:01;22.40;99.90
35206;DHT22;46555;45.620;13.796;2022-08-30T03:52:27;22.40;99.90
35206;DHT22;46555;45.620;13.796;2022-08-30T03:54:53;22.50;99.90
35206;DHT22;46555;45.620;13.796;2022-08-30T03:57:19;22.50;99.90
35206;DHT22;46555;45.620;13.796;2022-08-30T03:59:44;22.50;99.90
35206;DHT22;46555;45.620;13.796;2022-08-30T04:02:10;22.40;99.90
35206;DHT22;46555;45.620;13.796;2022-08-30T04:04:36;22.40;99.90
35206;DHT22;46555;45.620;13.796;2022-08-30T04:07:02;22.40;99.90
35206;DHT22;46555;45.620;13.796;2022-08-30T04:09:27;22.50;99.90
35206;DHT22;46555;45.620;13.796;2022-08-30T04:11:53;22.40;99.90
35206;DHT22;46555;45.620;13.796;2022-08-30T04:14:19;22.40;99.90
35206;DHT22;46555;45.620;13.796;2022-08-30T04:16:45;22.40;99.90
35206;DHT22;46555;45.620;13.796;2022-08-30T04:19:10;22.40;99.90
35206;DHT22;46555;45.620;13.796;2022-08-30T04:21:36;22.40;99.90
35206;DHT22;46555;45.620;13.796;2022-08-30T04:24:03;22.40;99.90
35206;DHT22;46555;45.620;13.796;2022-08-30T04:26:28;22.40;99.90
35206;DHT22;46555;45.620;13.796;2022-08-30T04:28:55;22.50;99.90
35206;DHT22;46555;45.620;13.796;2022-08-30T04:31:21;22.50;99.90
35206;DHT22;46555;45.620;13.796;2022-08-30T04:33:47;22.50;99.90
35206;DHT22;46555;45.620;13.796;2022-08-30T04:36:13;22.50;99.90
35206;DHT22;46555;45.620;13.796;2022-08-30T04:38:40;22.50;99.90
35206;DHT22;46555;45.620;13.796;2022-08-30T04:41:14;22.50;99.90
35206;DHT22;46555;45.620;13.796;2022-08-30T04:43:45;22.50;99.90
35206;DHT22;46555;45.620;13.796;2022-08-30T04:46:11;22.50;99.90
35206;DHT22;46555;45.620;13.796;2022-08-30T04:48:40;22.50;99.90
35206;DHT22;46555;45.620;13.796;2022-08-30T04:51:07;22.50;99.90
35206;DHT22;46555;45.620;13.796;2022-08-30T04:53:34;22.50;99.90
35206;DHT22;46555;45.620;13.796;2022-08-30T04:56:00;22.50;99.90
35206;DHT22;46555;45.620;13.796;2022-08-30T04:58:26;22.50;99.90
35206;DHT22;46555;45.620;13.796;2022-08-30T05:00:52;22.60;99.90
35206;DHT22;46555;45.620;13.796;2022-08-30T05:03:18;22.60;99.90
35206;DHT22;46555;45.620;13.796;2022-08-30T05:05:49;22.60;99.90
35206;DHT22;46555;45.620;13.796;2022-08-30T05:08:17;22.70;99.90
35206;DHT22;46555;45.620;13.796;2022-08-30T05:10:46;22.70;99.90
35206;DHT22;46555;45.620;13.796;2022-08-30T05:13:14;22.70;99.90
35206;DHT22;46555;45.620;13.796;2022-08-30T05:15:40;22.70;99.90
35206;DHT22;46555;45.620;13.796;2022-08-30T05:18:08;22.70;99.90
35206;DHT22;46555;45.620;13.796;2022-08-30T05:20:35;22.90;99.90
35206;DHT22;46555;45.620;13.796;2022-08-30T05:23:02;22.80;99.90
35206;DHT22;46555;45.620;13.796;2022-08-30T05:25:32;22.90;99.90
35206;DHT22;46555;45.620;13.796;2022-08-30T05:27:59;22.90;99.90
35206;DHT22;46555;45.620;13.796;2022-08-30T05:30:25;23.00;99.90
35206;DHT22;46555;45.620;13.796;2022-08-30T05:32:52;23.00;99.90
35206;DHT22;46555;45.620;13.796;2022-08-30T05:35:19;23.10;99.90
35206;DHT22;46555;45.620;13.796;2022-08-30T05:37:45;23.10;99.90
35206;DHT22;46555;45.620;13.796;2022-08-30T05:40:12;23.20;99.90
35206;DHT22;46555;45.620;13.796;2022-08-30T05:42:39;23.20;99.90
35206;DHT22;46555;45.620;13.796;2022-08-30T05:45:06;23.20;99.90
35206;DHT22;46555;45.620;13.796;2022-08-30T05:47:32;23.30;99.90
35206;DHT22;46555;45.620;13.796;2022-08-30T05:49:58;23.40;99.90
35206;DHT22;46555;45.620;13.796;2022-08-30T05:52:24;23.40;99.90
35206;DHT22;46555;45.620;13.796;2022-08-30T05:54:55;23.50;99.90
35206;DHT22;46555;45.620;13.796;2022-08-30T05:57:24;23.50;99.90
35206;DHT22;46555;45.620;13.796;2022-08-30T05:59:49;23.60;99.90
35206;DHT22;46555;45.620;13.796;2022-08-30T06:02:16;23.70;99.90
35206;DHT22;46555;45.620;13.796;2022-08-30T06:04:42;23.70;99.90
35206;DHT22;46555;45.620;13.796;2022-08-30T06:07:08;23.80;99.90
35206;DHT22;46555;45.620;13.796;2022-08-30T06:09:33;23.90;99.90
35206;DHT22;46555;45.620;13.796;2022-08-30T06:11:59;24.00;99.90
35206;DHT22;46555;45.620;13.796;2022-08-30T06:14:25;24.00;99.90
35206;DHT22;46555;45.620;13.796;2022-08-30T06:16:51;24.10;99.90
35206;DHT22;46555;45.620;13.796;2022-08-30T06:19:17;24.20;99.90
35206;DHT22;46555;45.620;13.796;2022-08-30T06:21:47;24.30;99.90
35206;DHT22;46555;45.620;13.796;2022-08-30T06:24:13;24.40;99.90
35206;DHT22;46555;45.620;13.796;2022-08-30T06:26:41;24.50;99.90
35206;DHT22;46555;45.620;13.796;2022-08-30T06:29:09;24.60;99.90
35206;DHT22;46555;45.620;13.796;2022-08-30T06:31:35;24.60;99.90
35206;DHT22;46555;45.620;13.796;2022-08-30T06:34:00;24.70;99.90
35206;DHT22;46555;45.620;13.796;2022-08-30T06:36:26;24.80;99.90
35206;DHT22;46555;45.620;13.796;2022-08-30T06:38:54;24.90;99.90
35206;DHT22;46555;45.620;13.796;2022-08-30T06:41:23;25.00;99.90
35206;DHT22;46555;45.620;13.796;2022-08-30T06:43:49;25.00;99.90
35206;DHT22;46555;45.620;13.796;2022-08-30T06:46:49;25.10;99.90
35206;DHT22;46555;45.620;13.796;2022-08-30T06:49:08;25.10;99.90
35206;DHT22;46555;45.620;13.796;2022-08-30T06:51:37;25.10;99.90
35206;DHT22;46555;45.620;13.796;2022-08-30T06:54:05;25.10;99.90
35206;DHT22;46555;45.620;13.796;2022-08-30T06:56:31;25.20;99.90
35206;DHT22;46555;45.620;13.796;2022-08-30T06:58:57;25.20;99.90
35206;DHT22;46555;45.620;13.796;2022-08-30T07:01:25;25.30;99.90
35206;DHT22;46555;45.620;13.796;2022-08-30T07:03:51;25.30;99.90
35206;DHT22;46555;45.620;13.796;2022-08-30T07:06:17;25.40;99.90
35206;DHT22;46555;45.620;13.796;2022-08-30T07:08:44;25.40;99.90
35206;DHT22;46555;45.620;13.796;2022-08-30T07:11:10;25.40;99.90
35206;DHT22;46555;45.620;13.796;2022-08-30T07:13:36;25.40;99.90
35206;DHT22;46555;45.620;13.796;2022-08-30T07:16:12;25.50;99.90
35206;DHT22;46555;45.620;13.796;2022-08-30T07:18:38;25.50;99.90
35206;DHT22;46555;45.620;13.796;2022-08-30T07:21:24;25.50;99.90
35206;DHT22;46555;45.620;13.796;2022-08-30T07:23:51;25.60;99.90
35206;DHT22;46555;45.620;13.796;2022-08-30T07:26:26;25.60;99.90
35206;DHT22;46555;45.620;13.796;2022-08-30T07:28:52;25.70;99.90
35206;DHT22;46555;45.620;13.796;2022-08-30T07:31:19;25.80;99.90
35206;DHT22;46555;45.620;13.796;2022-08-30T07:33:46;25.80;99.90
35206;DHT22;46555;45.620;13.796;2022-08-30T07:36:12;25.90;99.90
35206;DHT22;46555;45.620;13.796;2022-08-30T07:38:38;26.00;99.90
35206;DHT22;46555;45.620;13.796;2022-08-30T07:41:05;26.10;99.90
35206;DHT22;46555;45.620;13.796;2022-08-30T07:43:32;26.10;99.90
35206;DHT22;46555;45.620;13.796;2022-08-30T07:46:03;26.20;99.90
35206;DHT22;46555;45.620;13.796;2022-08-30T07:48:29;26.20;99.90
35206;DHT22;46555;45.620;13.796;2022-08-30T07:50:55;26.30;99.90
35206;DHT22;46555;45.620;13.796;2022-08-30T07:53:21;26.40;99.90
35206;DHT22;46555;45.620;13.796;2022-08-30T07:55:46;26.50;99.90
35206;DHT22;46555;45.620;13.796;2022-08-30T07:58:12;26.50;99.90
35206;DHT22;46555;45.620;13.796;2022-08-30T08:00:39;26.60;99.90
35206;DHT22;46555;45.620;13.796;2022-08-30T08:03:06;26.60;99.90
35206;DHT22;46555;45.620;13.796;2022-08-30T08:05:42;26.70;99.90
35206;DHT22;46555;45.620;13.796;2022-08-30T08:08:09;26.80;99.90
35206;DHT22;46555;45.620;13.796;2022-08-30T08:10:37;26.80;99.90
35206;DHT22;46555;45.620;13.796;2022-08-30T08:13:04;26.90;99.90
35206;DHT22;46555;45.620;13.796;2022-08-30T08:15:30;27.00;99.90
35206;DHT22;46555;45.620;13.796;2022-08-30T08:17:56;27.00;99.40
35206;DHT22;46555;45.620;13.796;2022-08-30T08:20:22;27.10;99.10
35206;DHT22;46555;45.620;13.796;2022-08-30T08:22:50;27.20;98.20
35206;DHT22;46555;45.620;13.796;2022-08-30T08:25:16;27.30;98.80
35206;DHT22;46555;45.620;13.796;2022-08-30T08:27:42;27.30;98.50
35206;DHT22;46555;45.620;13.796;2022-08-30T08:30:10;27.40;98.50
35206;DHT22;46555;45.620;13.796;2022-08-30T08:32:36;27.40;98.30
35206;DHT22;46555;45.620;13.796;2022-08-30T08:35:02;27.50;98.30
35206;DHT22;46555;45.620;13.796;2022-08-30T08:37:28;27.50;98.80
35206;DHT22;46555;45.620;13.796;2022-08-30T08:39:54;27.50;98.90
35206;DHT22;46555;45.620;13.796;2022-08-30T08:42:24;27.50;99.10
35206;DHT22;46555;45.620;13.796;2022-08-30T08:45:04;27.60;98.70
35206;DHT22;46555;45.620;13.796;2022-08-30T08:47:55;27.70;98.60
35206;DHT22;46555;45.620;13.796;2022-08-30T08:50:23;27.80;98.50
35206;DHT22;46555;45.620;13.796;2022-08-30T08:53:34;27.80;96.90
35206;DHT22;46555;45.620;13.796;2022-08-30T08:56:00;27.90;97.30
35206;DHT22;46555;45.620;13.796;2022-08-30T08:58:40;28.00;97.20
35206;DHT22;46555;45.620;13.796;2022-08-30T09:01:07;28.00;97.20
35206;DHT22;46555;45.620;13.796;2022-08-30T09:03:33;28.10;96.80
35206;DHT22;46555;45.620;13.796;2022-08-30T09:06:08;28.10;96.40
35206;DHT22;46555;45.620;13.796;2022-08-30T09:08:40;28.20;96.80
35206;DHT22;46555;45.620;13.796;2022-08-30T09:11:06;28.20;96.70
35206;DHT22;46555;45.620;13.796;2022-08-30T09:13:41;28.20;96.50
35206;DHT22;46555;45.620;13.796;2022-08-30T09:16:07;28.30;96.50
35206;DHT22;46555;45.620;13.796;2022-08-30T09:18:45;28.40;96.00
35206;DHT22;46555;45.620;13.796;2022-08-30T09:21:13;28.50;95.30
35206;DHT22;46555;45.620;13.796;2022-08-30T09:23:50;28.50;96.60
35206;DHT22;46555;45.620;13.796;2022-08-30T09:26:31;28.70;95.90
35206;DHT22;46555;45.620;13.796;2022-08-30T09:28:57;28.70;95.50
35206;DHT22;46555;45.620;13.796;2022-08-30T09:31:30;28.80;95.70
35206;DHT22;46555;45.620;13.796;2022-08-30T09:34:05;28.80;95.70
35206;DHT22;46555;45.620;13.796;2022-08-30T09:36:54;29.00;94.70
35206;DHT22;46555;45.620;13.796;2022-08-30T09:39:34;29.00;93.80
35206;DHT22;46555;45.620;13.796;2022-08-30T09:42:23;29.00;96.80
35206;DHT22;46555;45.620;13.796;2022-08-30T09:44:50;28.80;96.60
35206;DHT22;46555;45.620;13.796;2022-08-30T09:47:27;28.70;97.30
35206;DHT22;46555;45.620;13.796;2022-08-30T09:56:10;27.90;96.90
35206;DHT22;46555;45.620;13.796;2022-08-30T10:01:28;27.60;96.70
35206;DHT22;46555;45.620;13.796;2022-08-30T10:04:10;27.60;97.50
35206;DHT22;46555;45.620;13.796;2022-08-30T10:06:50;27.70;97.20
35206;DHT22;46555;45.620;13.796;2022-08-30T10:17:46;27.90;97.10
35206;DHT22;46555;45.620;13.796;2022-08-30T10:23:11;27.80;95.70
35206;DHT22;46555;45.620;13.796;2022-08-30T10:25:55;27.70;96.30
35206;DHT22;46555;45.620;13.796;2022-08-30T10:28:34;27.80;97.30
35206;DHT22;46555;45.620;13.796;2022-08-30T10:31:27;27.80;97.80
35206;DHT22;46555;45.620;13.796;2022-08-30T10:34:01;27.90;97.70
35206;DHT22;46555;45.620;13.796;2022-08-30T10:36:39;28.00;97.90
35206;DHT22;46555;45.620;13.796;2022-08-30T10:39:11;28.20;96.60
35206;DHT22;46555;45.620;13.796;2022-08-30T10:41:42;28.20;96.50
35206;DHT22;46555;45.620;13.796;2022-08-30T10:47:42;28.10;98.60
35206;DHT22;46555;45.620;13.796;2022-08-30T10:50:16;28.00;99.10
35206;DHT22;46555;45.620;13.796;2022-08-30T10:52:51;28.10;99.20
35206;DHT22;46555;45.620;13.796;2022-08-30T10:55:36;28.00;98.70
35206;DHT22;46555;45.620;13.796;2022-08-30T10:58:10;28.00;96.80
35206;DHT22;46555;45.620;13.796;2022-08-30T11:09:01;28.50;96.00
35206;DHT22;46555;45.620;13.796;2022-08-30T11:12:09;28.60;97.90
35206;DHT22;46555;45.620;13.796;2022-08-30T11:14:42;28.20;99.70
35206;DHT22;46555;45.620;13.796;2022-08-30T11:17:29;28.10;99.90
35206;DHT22;46555;45.620;13.796;2022-08-30T11:19:57;28.10;99.90
35206;DHT22;46555;45.620;13.796;2022-08-30T11:22:34;27.90;99.90
35206;DHT22;46555;45.620;13.796;2022-08-30T11:28:00;27.60;99.90
35206;DHT22;46555;45.620;13.796;2022-08-30T11:33:01;27.60;99.90
35206;DHT22;46555;45.620;13.796;2022-08-30T11:38:00;27.70;99.90
35206;DHT22;46555;45.620;13.796;2022-08-30T11:40:46;27.60;99.90
35206;DHT22;46555;45.620;13.796;2022-08-30T11:45:51;27.70;99.90
35206;DHT22;46555;45.620;13.796;2022-08-30T11:51:18;27.70;99.90
35206;DHT22;46555;45.620;13.796;2022-08-30T11:53:58;27.60;99.90
35206;DHT22;46555;45.620;13.796;2022-08-30T12:02:03;27.80;99.90
35206;DHT22;46555;45.620;13.796;2022-08-30T12:04:43;27.80;99.90
35206;DHT22;46555;45.620;13.796;2022-08-30T12:07:54;27.80;99.90
35206;DHT22;46555;45.620;13.796;2022-08-30T12:09:58;27.80;99.90
35206;DHT22;46555;45.620;13.796;2022-08-30T12:14:54;29.50;99.90
35206;DHT22;46555;45.620;13.796;2022-08-30T12:20:40;31.70;97.40
35206;DHT22;46555;45.620;13.796;2022-08-30T12:26:14;33.50;95.70
35206;DHT22;46555;45.620;13.796;2022-08-30T12:28:40;34.30;95.20
35206;DHT22;46555;45.620;13.796;2022-08-30T12:31:14;35.10;94.40
35206;DHT22;46555;45.620;13.796;2022-08-30T12:33:46;36.00;92.80
35206;DHT22;46555;45.620;13.796;2022-08-30T12:36:47;36.50;91.30
35206;DHT22;46555;45.620;13.796;2022-08-30T12:39:23;36.60;91.50
35206;DHT22;46555;45.620;13.796;2022-08-30T12:41:49;37.60;90.40
35206;DHT22;46555;45.620;13.796;2022-08-30T12:44:23;38.30;90.00
35206;DHT22;46555;45.620;13.796;2022-08-30T12:46:52;38.80;89.20
35206;DHT22;46555;45.620;13.796;2022-08-30T12:49:19;39.00;88.30
35206;DHT22;46555;45.620;13.796;2022-08-30T12:51:46;39.40;87.10
35206;DHT22;46555;45.620;13.796;2022-08-30T12:54:16;40.00;85.60
35206;DHT22;46555;45.620;13.796;2022-08-30T12:56:55;39.50;85.50
35206;DHT22;46555;45.620;13.796;2022-08-30T12:59:42;38.80;87.20
35206;DHT22;46555;45.620;13.796;2022-08-30T13:02:20;38.60;88.60
35206;DHT22;46555;45.620;13.796;2022-08-30T13:04:47;38.10;88.90
35206;DHT22;46555;45.620;13.796;2022-08-30T13:07:32;38.20;89.50
35206;DHT22;46555;45.620;13.796;2022-08-30T13:10:08;38.00;90.00
35206;DHT22;46555;45.620;13.796;2022-08-30T13:12:37;38.40;88.20
35206;DHT22;46555;45.620;13.796;2022-08-30T13:15:16;38.60;86.90
35206;DHT22;46555;45.620;13.796;2022-08-30T13:17:43;39.00;87.50
35206;DHT22;46555;45.620;13.796;2022-08-30T13:22:41;38.50;87.40
35206;DHT22;46555;45.620;13.796;2022-08-30T13:25:09;38.70;85.80
35206;DHT22;46555;45.620;13.796;2022-08-30T13:27:37;38.70;85.90
35206;DHT22;46555;45.620;13.796;2022-08-30T13:30:08;38.30;85.90
35206;DHT22;46555;45.620;13.796;2022-08-30T13:32:34;38.30;85.90
35206;DHT22;46555;45.620;13.796;2022-08-30T13:35:04;38.40;86.10
35206;DHT22;46555;45.620;13.796;2022-08-30T13:37:30;38.50;86.30
35206;DHT22;46555;45.620;13.796;2022-08-30T13:39:57;38.50;85.10
35206;DHT22;46555;45.620;13.796;2022-08-30T13:42:23;38.50;86.10
35206;DHT22;46555;45.620;13.796;2022-08-30T13:44:49;38.70;85.20
35206;DHT22;46555;45.620;13.796;2022-08-30T13:47:15;38.40;84.60
35206;DHT22;46555;45.620;13.796;2022-08-30T13:49:42;38.00;86.20
35206;DHT22;46555;45.620;13.796;2022-08-30T13:52:11;37.30;87.30
35206;DHT22;46555;45.620;13.796;2022-08-30T13:54:38;37.00;88.30
35206;DHT22;46555;45.620;13.796;2022-08-30T13:57:04;36.80;84.90
35206;DHT22;46555;45.620;13.796;2022-08-30T13:59:30;37.00;86.70
35206;DHT22;46555;45.620;13.796;2022-08-30T14:01:59;37.00;88.10
35206;DHT22;46555;45.620;13.796;2022-08-30T14:04:25;37.20;88.40
35206;DHT22;46555;45.620;13.796;2022-08-30T14:06:50;37.60;87.30
35206;DHT22;46555;45.620;13.796;2022-08-30T14:09:16;37.70;86.80
35206;DHT22;46555;45.620;13.796;2022-08-30T14:11:42;37.70;86.80
35206;DHT22;46555;45.620;13.796;2022-08-30T14:14:08;37.80;87.10
35206;DHT22;46555;45.620;13.796;2022-08-30T14:16:35;37.50;88.30
35206;DHT22;46555;45.620;13.796;2022-08-30T14:19:02;37.80;89.10
35206;DHT22;46555;45.620;13.796;2022-08-30T14:21:28;38.00;88.20
35206;DHT22;46555;45.620;13.796;2022-08-30T14:23:55;38.40;86.10
35206;DHT22;46555;45.620;13.796;2022-08-30T14:26:27;38.30;86.40
35206;DHT22;46555;45.620;13.796;2022-08-30T14:28:53;37.80;86.50
35206;DHT22;46555;45.620;13.796;2022-08-30T14:31:19;37.50;85.70
35206;DHT22;46555;45.620;13.796;2022-08-30T14:33:45;37.60;87.20
35206;DHT22;46555;45.620;13.796;2022-08-30T14:36:11;37.30;86.70
35206;DHT22;46555;45.620;13.796;2022-08-30T14:38:37;37.60;87.30
35206;DHT22;46555;45.620;13.796;2022-08-30T14:41:04;38.30;83.30
35206;DHT22;46555;45.620;13.796;2022-08-30T14:43:30;38.70;80.40
35206;DHT22;46555;45.620;13.796;2022-08-30T14:45:59;38.90;80.90
35206;DHT22;46555;45.620;13.796;2022-08-30T14:48:25;39.10;78.30
35206;DHT22;46555;45.620;13.796;2022-08-30T14:50:51;38.80;76.70
35206;DHT22;46555;45.620;13.796;2022-08-30T14:53:17;38.40;76.50
35206;DHT22;46555;45.620;13.796;2022-08-30T14:55:43;38.20;76.10
35206;DHT22;46555;45.620;13.796;2022-08-30T14:58:08;37.50;77.20
35206;DHT22;46555;45.620;13.796;2022-08-30T15:00:37;36.90;80.70
35206;DHT22;46555;45.620;13.796;2022-08-30T15:03:03;36.40;83.80
35206;DHT22;46555;45.620;13.796;2022-08-30T15:05:28;36.00;82.90
35206;DHT22;46555;45.620;13.796;2022-08-30T15:07:56;35.90;84.40
35206;DHT22;46555;45.620;13.796;2022-08-30T15:10:22;35.80;81.10
35206;DHT22;46555;45.620;13.796;2022-08-30T15:12:49;36.00;84.30
35206;DHT22;46555;45.620;13.796;2022-08-30T15:15:18;35.70;83.70
35206;DHT22;46555;45.620;13.796;2022-08-30T15:17:45;35.70;83.10
35206;DHT22;46555;45.620;13.796;2022-08-30T15:20:11;35.70;83.10
35206;DHT22;46555;45.620;13.796;2022-08-30T15:22:38;35.50;84.40
35206;DHT22;46555;45.620;13.796;2022-08-30T15:25:04;35.10;86.20
35206;DHT22;46555;45.620;13.796;2022-08-30T15:27:30;35.00;87.50
35206;DHT22;46555;45.620;13.796;2022-08-30T15:29:56;34.60;90.00
35206;DHT22;46555;45.620;13.796;2022-08-30T15:32:22;34.60;90.10
35206;DHT22;46555;45.620;13.796;2022-08-30T15:34:47;34.40;90.10
35206;DHT22;46555;45.620;13.796;2022-08-30T15:37:13;34.00;90.40
35206;DHT22;46555;45.620;13.796;2022-08-30T15:39:49;33.70;91.90
35206;DHT22;46555;45.620;13.796;2022-08-30T15:42:15;33.60;92.10
35206;DHT22;46555;45.620;13.796;2022-08-30T15:44:44;33.60;90.40
35206;DHT22;46555;45.620;13.796;2022-08-30T15:47:10;33.50;92.50
35206;DHT22;46555;45.620;13.796;2022-08-30T15:49:36;33.00;93.00
35206;DHT22;46555;45.620;13.796;2022-08-30T15:52:04;32.80;93.70
35206;DHT22;46555;45.620;13.796;2022-08-30T15:54:30;32.40;93.70
35206;DHT22;46555;45.620;13.796;2022-08-30T15:56:56;31.90;93.90
35206;DHT22;46555;45.620;13.796;2022-08-30T15:59:29;31.40;94.70
35206;DHT22;46555;45.620;13.796;2022-08-30T16:01:54;31.10;96.30
35206;DHT22;46555;45.620;13.796;2022-08-30T16:04:20;30.70;96.60
35206;DHT22;46555;45.620;13.796;2022-08-30T16:06:46;30.40;97.10
35206;DHT22;46555;45.620;13.796;2022-08-30T16:09:12;30.20;97.60
35206;DHT22;46555;45.620;13.796;2022-08-30T16:11:38;30.10;98.30
35206;DHT22;46555;45.620;13.796;2022-08-30T16:14:04;29.80;98.70
35206;DHT22;46555;45.620;13.796;2022-08-30T16:16:30;30.00;98.50
35206;DHT22;46555;45.620;13.796;2022-08-30T16:18:57;30.40;98.00
35206;DHT22;46555;45.620;13.796;2022-08-30T16:21:25;31.00;97.00
35206;DHT22;46555;45.620;13.796;2022-08-30T16:23:54;31.50;96.10
35206;DHT22;46555;45.620;13.796;2022-08-30T16:26:20;32.10;95.60
35206;DHT22;46555;45.620;13.796;2022-08-30T16:28:47;32.40;94.60
35206;DHT22;46555;45.620;13.796;2022-08-30T16:31:14;32.20;94.70